sensor_id;sensor_type;location;lat;lon;timestamp;P1;durP1;ratioP1;P2;durP2;ratioP2
9918;SDS011;4998;51.024;13.828;2023-05-10T00:02:08;1.90;;;1.80;;
9918;SDS011;4998;51.024;13.828;2023-05-10T00:04:36;1.70;;;1.60;;
9918;SDS011;4998;51.024;13.828;2023-05-10T00:07:03;2.37;;;1.60;;
9918;SDS011;4998;51.024;13.828;2023-05-10T00:09:30;4.53;;;2.00;;
9918;SDS011;4998;51.024;13.828;2023-05-10T00:11:58;2.00;;;1.90;;
9918;SDS011;4998;51.024;13.828;2023-05-10T00:14:25;1.70;;;1.57;;
9918;SDS011;4998;51.024;13.828;2023-05-10T00:16:52;1.90;;;1.80;;
9918;SDS011;4998;51.024;13.828;2023-05-10T00:19:19;1.70;;;1.60;;
9918;SDS011;4998;51.024;13.828;2023-05-10T00:21:46;1.60;;;1.50;;
9918;SDS011;4998;51.024;13.828;2023-05-10T00:24:13;1.70;;;1.60;;
9918;SDS011;4998;51.024;13.828;2023-05-10T00:26:40;1.60;;;1.50;;
9918;SDS011;4998;51.024;13.828;2023-05-10T00:29:08;3.10;;;1.87;;
9918;SDS011;4998;51.024;13.828;2023-05-10T00:31:35;3.37;;;1.87;;
9918;SDS011;4998;51.024;13.828;2023-05-10T00:34:02;2.23;;;2.00;;
9918;SDS011;4998;51.024;13.828;2023-05-10T00:36:29;1.90;;;1.73;;
9918;SDS011;4998;51.024;13.828;2023-05-10T00:38:56;2.73;;;2.00;;
9918;SDS011;4998;51.024;13.828;2023-05-10T00:41:23;1.80;;;1.70;;
9918;SDS011;4998;51.024;13.828;2023-05-10T00:43:50;1.87;;;1.70;;
9918;SDS011;4998;51.024;13.828;2023-05-10T00:46:19;1.67;;;1.57;;
9918;SDS011;4998;51.024;13.828;2023-05-10T00:48:46;1.50;;;1.50;;
9918;SDS011;4998;51.024;13.828;2023-05-10T00:51:13;1.70;;;1.60;;
9918;SDS011;4998;51.024;13.828;2023-05-10T00:53:40;1.80;;;1.70;;
9918;SDS011;4998;51.024;13.828;2023-05-10T00:56:07;2.13;;;1.77;;
9918;SDS011;4998;51.024;13.828;2023-05-10T00:58:34;1.70;;;1.53;;
9918;SDS011;4998;51.024;13.828;2023-05-10T01:01:01;1.80;;;1.70;;
9918;SDS011;4998;51.024;13.828;2023-05-10T01:03:30;2.30;;;1.73;;
9918;SDS011;4998;51.024;13.828;2023-05-10T01:05:58;1.73;;;1.60;;
9918;SDS011;4998;51.024;13.828;2023-05-10T01:08:25;1.60;;;1.50;;
9918;SDS011;4998;51.024;13.828;2023-05-10T01:10:52;1.63;;;1.53;;
9918;SDS011;4998;51.024;13.828;2023-05-10T01:13:23;1.50;;;1.40;;
9918;SDS011;4998;51.024;13.828;2023-05-10T01:15:56;1.50;;;1.40;;
9918;SDS011;4998;51.024;13.828;2023-05-10T01:18:25;1.73;;;1.63;;
9918;SDS011;4998;51.024;13.828;2023-05-10T01:20:57;1.73;;;1.63;;
9918;SDS011;4998;51.024;13.828;2023-05-10T01:23:42;1.70;;;1.60;;
9918;SDS011;4998;51.024;13.828;2023-05-10T01:26:34;2.00;;;1.80;;
9918;SDS011;4998;51.024;13.828;2023-05-10T01:29:28;1.73;;;1.63;;
9918;SDS011;4998;51.024;13.828;2023-05-10T01:32:25;1.73;;;1.60;;
9918;SDS011;4998;51.024;13.828;2023-05-10T01:34:59;1.53;;;1.43;;
9918;SDS011;4998;51.024;13.828;2023-05-10T01:37:31;1.70;;;1.60;;
9918;SDS011;4998;51.024;13.828;2023-05-10T01:40:08;1.83;;;1.73;;
9918;SDS011;4998;51.024;13.828;2023-05-10T01:42:45;1.90;;;1.80;;
9918;SDS011;4998;51.024;13.828;2023-05-10T01:45:18;1.40;;;1.30;;
9918;SDS011;4998;51.024;13.828;2023-05-10T01:47:54;1.83;;;1.73;;
9918;SDS011;4998;51.024;13.828;2023-05-10T01:50:30;2.03;;;1.60;;
9918;SDS011;4998;51.024;13.828;2023-05-10T01:52:59;1.83;;;1.70;;
9918;SDS011;4998;51.024;13.828;2023-05-10T01:55:28;7.13;;;1.60;;
9918;SDS011;4998;51.024;13.828;2023-05-10T01:58:00;2.23;;;1.60;;
9918;SDS011;4998;51.024;13.828;2023-05-10T02:00:31;1.93;;;1.83;;
9918;SDS011;4998;51.024;13.828;2023-05-10T02:03:01;1.90;;;1.80;;
9918;SDS011;4998;51.024;13.828;2023-05-10T02:05:32;1.60;;;1.50;;
9918;SDS011;4998;51.024;13.828;2023-05-10T02:08:01;2.10;;;1.90;;
9918;SDS011;4998;51.024;13.828;2023-05-10T02:10:31;2.10;;;1.70;;
9918;SDS011;4998;51.024;13.828;2023-05-10T02:12:59;1.63;;;1.53;;
9918;SDS011;4998;51.024;13.828;2023-05-10T02:15:28;1.90;;;1.80;;
9918;SDS011;4998;51.024;13.828;2023-05-10T02:17:55;1.80;;;1.70;;
9918;SDS011;4998;51.024;13.828;2023-05-10T02:20:26;2.07;;;1.60;;
9918;SDS011;4998;51.024;13.828;2023-05-10T02:22:54;1.70;;;1.60;;
9918;SDS011;4998;51.024;13.828;2023-05-10T02:25:23;2.20;;;1.70;;
9918;SDS011;4998;51.024;13.828;2023-05-10T02:27:51;1.90;;;1.80;;
9918;SDS011;4998;51.024;13.828;2023-05-10T02:30:21;1.70;;;1.60;;
9918;SDS011;4998;51.024;13.828;2023-05-10T02:32:49;3.03;;;1.90;;
9918;SDS011;4998;51.024;13.828;2023-05-10T02:35:17;1.83;;;1.73;;
9918;SDS011;4998;51.024;13.828;2023-05-10T02:37:46;7.50;;;1.87;;
9918;SDS011;4998;51.024;13.828;2023-05-10T02:40:14;1.53;;;1.43;;
9918;SDS011;4998;51.024;13.828;2023-05-10T02:42:43;3.10;;;1.40;;
9918;SDS011;4998;51.024;13.828;2023-05-10T02:45:12;2.07;;;1.80;;
9918;SDS011;4998;51.024;13.828;2023-05-10T02:47:41;2.00;;;1.90;;
9918;SDS011;4998;51.024;13.828;2023-05-10T02:50:09;2.10;;;1.73;;
9918;SDS011;4998;51.024;13.828;2023-05-10T02:52:39;2.87;;;2.00;;
9918;SDS011;4998;51.024;13.828;2023-05-10T02:55:11;1.70;;;1.60;;
9918;SDS011;4998;51.024;13.828;2023-05-10T02:57:43;1.73;;;1.63;;
9918;SDS011;4998;51.024;13.828;2023-05-10T03:00:14;2.10;;;1.97;;
9918;SDS011;4998;51.024;13.828;2023-05-10T03:02:41;2.30;;;1.80;;
9918;SDS011;4998;51.024;13.828;2023-05-10T03:05:08;2.00;;;1.80;;
9918;SDS011;4998;51.024;13.828;2023-05-10T03:07:35;1.90;;;1.80;;
9918;SDS011;4998;51.024;13.828;2023-05-10T03:10:03;2.30;;;1.80;;
9918;SDS011;4998;51.024;13.828;2023-05-10T03:12:33;1.53;;;1.50;;
9918;SDS011;4998;51.024;13.828;2023-05-10T03:15:14;1.77;;;1.57;;
9918;SDS011;4998;51.024;13.828;2023-05-10T03:17:51;1.63;;;1.53;;
9918;SDS011;4998;51.024;13.828;2023-05-10T03:20:23;2.30;;;2.10;;
9918;SDS011;4998;51.024;13.828;2023-05-10T03:22:53;1.50;;;1.40;;
9918;SDS011;4998;51.024;13.828;2023-05-10T03:25:26;3.00;;;1.50;;
9918;SDS011;4998;51.024;13.828;2023-05-10T03:27:56;3.20;;;1.70;;
9918;SDS011;4998;51.024;13.828;2023-05-10T03:30:24;1.90;;;1.70;;
9918;SDS011;4998;51.024;13.828;2023-05-10T03:32:51;2.20;;;1.90;;
9918;SDS011;4998;51.024;13.828;2023-05-10T03:35:19;1.90;;;1.80;;
9918;SDS011;4998;51.024;13.828;2023-05-10T03:37:46;1.73;;;1.63;;
9918;SDS011;4998;51.024;13.828;2023-05-10T03:40:13;1.60;;;1.50;;
9918;SDS011;4998;51.024;13.828;2023-05-10T03:42:40;1.80;;;1.70;;
9918;SDS011;4998;51.024;13.828;2023-05-10T03:45:09;3.77;;;1.80;;
9918;SDS011;4998;51.024;13.828;2023-05-10T03:47:36;1.70;;;1.60;;
9918;SDS011;4998;51.024;13.828;2023-05-10T03:50:04;1.70;;;1.60;;
9918;SDS011;4998;51.024;13.828;2023-05-10T03:52:32;2.17;;;1.70;;
9918;SDS011;4998;51.024;13.828;2023-05-10T03:54:58;1.57;;;1.47;;
9918;SDS011;4998;51.024;13.828;2023-05-10T03:57:27;1.70;;;1.60;;
9918;SDS011;4998;51.024;13.828;2023-05-10T03:59:54;1.63;;;1.53;;
9918;SDS011;4998;51.024;13.828;2023-05-10T04:02:23;2.60;;;1.70;;
9918;SDS011;4998;51.024;13.828;2023-05-10T04:04:50;1.80;;;1.70;;
9918;SDS011;4998;51.024;13.828;2023-05-10T04:07:17;1.80;;;1.70;;
9918;SDS011;4998;51.024;13.828;2023-05-10T04:09:44;1.80;;;1.70;;
9918;SDS011;4998;51.024;13.828;2023-05-10T04:12:11;1.87;;;1.77;;
9918;SDS011;4998;51.024;13.828;2023-05-10T04:14:38;1.70;;;1.60;;
9918;SDS011;4998;51.024;13.828;2023-05-10T04:17:05;3.00;;;1.80;;
9918;SDS011;4998;51.024;13.828;2023-05-10T04:19:33;1.57;;;1.47;;
9918;SDS011;4998;51.024;13.828;2023-05-10T04:22:01;1.60;;;1.50;;
9918;SDS011;4998;51.024;13.828;2023-05-10T04:24:28;1.60;;;1.50;;
9918;SDS011;4998;51.024;13.828;2023-05-10T04:26:55;1.73;;;1.63;;
9918;SDS011;4998;51.024;13.828;2023-05-10T04:29:22;1.53;;;1.43;;
9918;SDS011;4998;51.024;13.828;2023-05-10T04:31:49;2.43;;;1.67;;
9918;SDS011;4998;51.024;13.828;2023-05-10T04:34:17;1.80;;;1.70;;
9918;SDS011;4998;51.024;13.828;2023-05-10T04:36:45;1.60;;;1.50;;
9918;SDS011;4998;51.024;13.828;2023-05-10T04:39:12;1.60;;;1.50;;
9918;SDS011;4998;51.024;13.828;2023-05-10T04:41:39;1.93;;;1.83;;
9918;SDS011;4998;51.024;13.828;2023-05-10T04:44:06;1.60;;;1.50;;
9918;SDS011;4998;51.024;13.828;2023-05-10T04:46:33;1.90;;;1.70;;
9918;SDS011;4998;51.024;13.828;2023-05-10T04:49:00;1.70;;;1.60;;
9918;SDS011;4998;51.024;13.828;2023-05-10T04:51:27;1.70;;;1.60;;
9918;SDS011;4998;51.024;13.828;2023-05-10T04:53:56;1.50;;;1.40;;
9918;SDS011;4998;51.024;13.828;2023-05-10T04:56:22;2.73;;;1.87;;
9918;SDS011;4998;51.024;13.828;2023-05-10T04:58:49;3.93;;;2.20;;
9918;SDS011;4998;51.024;13.828;2023-05-10T05:01:16;1.53;;;1.43;;
9918;SDS011;4998;51.024;13.828;2023-05-10T05:03:43;2.33;;;1.60;;
9918;SDS011;4998;51.024;13.828;2023-05-10T05:06:10;1.70;;;1.60;;
9918;SDS011;4998;51.024;13.828;2023-05-10T05:08:37;2.07;;;1.57;;
9918;SDS011;4998;51.024;13.828;2023-05-10T05:11:06;1.60;;;1.50;;
9918;SDS011;4998;51.024;13.828;2023-05-10T05:13:33;1.80;;;1.70;;
9918;SDS011;4998;51.024;13.828;2023-05-10T05:16:00;1.97;;;1.60;;
9918;SDS011;4998;51.024;13.828;2023-05-10T05:18:27;1.70;;;1.60;;
9918;SDS011;4998;51.024;13.828;2023-05-10T05:20:54;1.37;;;1.27;;
9918;SDS011;4998;51.024;13.828;2023-05-10T05:23:21;6.40;;;1.77;;
9918;SDS011;4998;51.024;13.828;2023-05-10T05:25:50;2.70;;;2.13;;
9918;SDS011;4998;51.024;13.828;2023-05-10T05:28:19;1.50;;;1.40;;
9918;SDS011;4998;51.024;13.828;2023-05-10T05:30:46;1.70;;;1.60;;
9918;SDS011;4998;51.024;13.828;2023-05-10T05:33:13;3.07;;;1.70;;
9918;SDS011;4998;51.024;13.828;2023-05-10T05:35:41;7.30;;;1.60;;
9918;SDS011;4998;51.024;13.828;2023-05-10T05:38:12;2.00;;;1.90;;
9918;SDS011;4998;51.024;13.828;2023-05-10T05:40:40;2.97;;;1.77;;
9918;SDS011;4998;51.024;13.828;2023-05-10T05:43:13;1.77;;;1.67;;
9918;SDS011;4998;51.024;13.828;2023-05-10T05:45:41;1.50;;;1.40;;
9918;SDS011;4998;51.024;13.828;2023-05-10T05:48:08;1.80;;;1.70;;
9918;SDS011;4998;51.024;13.828;2023-05-10T05:50:35;2.10;;;1.90;;
9918;SDS011;4998;51.024;13.828;2023-05-10T05:53:02;3.03;;;1.63;;
9918;SDS011;4998;51.024;13.828;2023-05-10T05:55:29;1.60;;;1.50;;
9918;SDS011;4998;51.024;13.828;2023-05-10T05:57:56;1.70;;;1.60;;
9918;SDS011;4998;51.024;13.828;2023-05-10T06:00:23;3.83;;;2.13;;
9918;SDS011;4998;51.024;13.828;2023-05-10T06:02:52;2.07;;;1.83;;
9918;SDS011;4998;51.024;13.828;2023-05-10T06:05:19;4.03;;;1.80;;
9918;SDS011;4998;51.024;13.828;2023-05-10T06:07:46;2.07;;;1.87;;
9918;SDS011;4998;51.024;13.828;2023-05-10T06:10:13;1.60;;;1.50;;
9918;SDS011;4998;51.024;13.828;2023-05-10T06:12:40;4.77;;;2.17;;
9918;SDS011;4998;51.024;13.828;2023-05-10T06:15:07;1.90;;;1.80;;
9918;SDS011;4998;51.024;13.828;2023-05-10T06:17:35;2.33;;;1.63;;
9918;SDS011;4998;51.024;13.828;2023-05-10T06:20:06;1.77;;;1.60;;
9918;SDS011;4998;51.024;13.828;2023-05-10T06:22:33;1.50;;;1.40;;
9918;SDS011;4998;51.024;13.828;2023-05-10T06:25:00;2.43;;;1.83;;
9918;SDS011;4998;51.024;13.828;2023-05-10T06:27:28;6.57;;;1.60;;
9918;SDS011;4998;51.024;13.828;2023-05-10T06:29:55;4.73;;;1.47;;
9918;SDS011;4998;51.024;13.828;2023-05-10T06:32:22;3.20;;;1.73;;
9918;SDS011;4998;51.024;13.828;2023-05-10T06:34:49;3.50;;;1.90;;
9918;SDS011;4998;51.024;13.828;2023-05-10T06:37:17;1.80;;;1.70;;
9918;SDS011;4998;51.024;13.828;2023-05-10T06:39:44;2.00;;;1.80;;
9918;SDS011;4998;51.024;13.828;2023-05-10T06:42:11;1.83;;;1.57;;
9918;SDS011;4998;51.024;13.828;2023-05-10T06:44:38;1.50;;;1.40;;
9918;SDS011;4998;51.024;13.828;2023-05-10T06:47:05;1.73;;;1.63;;
9918;SDS011;4998;51.024;13.828;2023-05-10T06:49:32;1.83;;;1.73;;
9918;SDS011;4998;51.024;13.828;2023-05-10T06:51:59;1.73;;;1.63;;
9918;SDS011;4998;51.024;13.828;2023-05-10T06:54:27;2.57;;;1.80;;
9918;SDS011;4998;51.024;13.828;2023-05-10T06:56:54;1.53;;;1.43;;
9918;SDS011;4998;51.024;13.828;2023-05-10T06:59:21;1.90;;;1.80;;
9918;SDS011;4998;51.024;13.828;2023-05-10T07:01:49;1.70;;;1.60;;
9918;SDS011;4998;51.024;13.828;2023-05-10T07:04:16;3.17;;;1.53;;
9918;SDS011;4998;51.024;13.828;2023-05-10T07:06:43;2.03;;;1.80;;
9918;SDS011;4998;51.024;13.828;2023-05-10T07:09:11;1.80;;;1.70;;
9918;SDS011;4998;51.024;13.828;2023-05-10T07:11:39;2.20;;;2.00;;
9918;SDS011;4998;51.024;13.828;2023-05-10T07:14:06;1.83;;;1.73;;
9918;SDS011;4998;51.024;13.828;2023-05-10T07:16:33;1.80;;;1.70;;
9918;SDS011;4998;51.024;13.828;2023-05-10T07:19:00;2.13;;;1.93;;
9918;SDS011;4998;51.024;13.828;2023-05-10T07:21:27;2.20;;;1.97;;
9918;SDS011;4998;51.024;13.828;2023-05-10T07:23:54;2.07;;;1.90;;
9918;SDS011;4998;51.024;13.828;2023-05-10T07:26:21;2.30;;;1.70;;
9918;SDS011;4998;51.024;13.828;2023-05-10T07:28:50;2.83;;;2.00;;
9918;SDS011;4998;51.024;13.828;2023-05-10T07:31:17;2.13;;;2.03;;
9918;SDS011;4998;51.024;13.828;2023-05-10T07:33:44;2.50;;;1.97;;
9918;SDS011;4998;51.024;13.828;2023-05-10T07:36:11;1.80;;;1.70;;
9918;SDS011;4998;51.024;13.828;2023-05-10T07:38:38;2.00;;;1.80;;
9918;SDS011;4998;51.024;13.828;2023-05-10T07:41:05;1.70;;;1.60;;
9918;SDS011;4998;51.024;13.828;2023-05-10T07:43:32;5.00;;;1.77;;
9918;SDS011;4998;51.024;13.828;2023-05-10T07:46:00;2.63;;;1.97;;
9918;SDS011;4998;51.024;13.828;2023-05-10T07:48:27;2.17;;;1.97;;
9918;SDS011;4998;51.024;13.828;2023-05-10T07:50:54;2.27;;;1.80;;
9918;SDS011;4998;51.024;13.828;2023-05-10T07:53:21;1.73;;;1.60;;
9918;SDS011;4998;51.024;13.828;2023-05-10T07:55:50;1.70;;;1.60;;
9918;SDS011;4998;51.024;13.828;2023-05-10T07:58:17;2.77;;;1.97;;
9918;SDS011;4998;51.024;13.828;2023-05-10T08:00:44;2.60;;;2.10;;
9918;SDS011;4998;51.024;13.828;2023-05-10T08:03:13;1.90;;;1.80;;
9918;SDS011;4998;51.024;13.828;2023-05-10T08:05:40;2.67;;;2.00;;
9918;SDS011;4998;51.024;13.828;2023-05-10T08:08:07;2.47;;;2.00;;
9918;SDS011;4998;51.024;13.828;2023-05-10T08:10:34;4.20;;;2.00;;
9918;SDS011;4998;51.024;13.828;2023-05-10T08:13:01;2.47;;;2.10;;
9918;SDS011;4998;51.024;13.828;2023-05-10T08:15:28;2.20;;;2.00;;
9918;SDS011;4998;51.024;13.828;2023-05-10T08:17:55;3.57;;;2.10;;
9918;SDS011;4998;51.024;13.828;2023-05-10T08:20:24;5.47;;;1.80;;
9918;SDS011;4998;51.024;13.828;2023-05-10T08:22:51;1.90;;;1.80;;
9918;SDS011;4998;51.024;13.828;2023-05-10T08:25:18;1.80;;;1.70;;
9918;SDS011;4998;51.024;13.828;2023-05-10T08:27:45;3.03;;;2.30;;
9918;SDS011;4998;51.024;13.828;2023-05-10T08:30:12;2.80;;;2.10;;
9918;SDS011;4998;51.024;13.828;2023-05-10T08:32:39;2.07;;;1.90;;
9918;SDS011;4998;51.024;13.828;2023-05-10T08:35:06;2.30;;;2.00;;
9918;SDS011;4998;51.024;13.828;2023-05-10T08:37:35;4.50;;;2.23;;
9918;SDS011;4998;51.024;13.828;2023-05-10T08:40:02;2.70;;;2.00;;
9918;SDS011;4998;51.024;13.828;2023-05-10T08:42:30;2.53;;;2.10;;
9918;SDS011;4998;51.024;13.828;2023-05-10T08:45:00;2.10;;;2.00;;
9918;SDS011;4998;51.024;13.828;2023-05-10T08:47:28;2.50;;;2.20;;
9918;SDS011;4998;51.024;13.828;2023-05-10T08:49:56;2.07;;;1.97;;
9918;SDS011;4998;51.024;13.828;2023-05-10T08:52:24;3.10;;;2.07;;
9918;SDS011;4998;51.024;13.828;2023-05-10T08:54:55;2.10;;;2.00;;
9918;SDS011;4998;51.024;13.828;2023-05-10T08:57:23;2.50;;;2.27;;
9918;SDS011;4998;51.024;13.828;2023-05-10T08:59:50;2.30;;;1.90;;
9918;SDS011;4998;51.024;13.828;2023-05-10T09:02:17;2.57;;;1.90;;
9918;SDS011;4998;51.024;13.828;2023-05-10T09:04:45;2.40;;;2.20;;
9918;SDS011;4998;51.024;13.828;2023-05-10T09:07:13;2.00;;;1.90;;
9918;SDS011;4998;51.024;13.828;2023-05-10T09:09:41;2.93;;;2.40;;
9918;SDS011;4998;51.024;13.828;2023-05-10T09:12:09;2.50;;;2.23;;
9918;SDS011;4998;51.024;13.828;2023-05-10T09:14:37;2.33;;;2.13;;
9918;SDS011;4998;51.024;13.828;2023-05-10T09:17:04;2.37;;;2.10;;
9918;SDS011;4998;51.024;13.828;2023-05-10T09:19:31;2.10;;;2.00;;
9918;SDS011;4998;51.024;13.828;2023-05-10T09:21:58;1.97;;;1.87;;
9918;SDS011;4998;51.024;13.828;2023-05-10T09:24:28;2.37;;;2.07;;
9918;SDS011;4998;51.024;13.828;2023-05-10T09:26:56;2.73;;;2.30;;
9918;SDS011;4998;51.024;13.828;2023-05-10T09:29:25;2.00;;;1.90;;
9918;SDS011;4998;51.024;13.828;2023-05-10T09:31:52;2.47;;;2.33;;
9918;SDS011;4998;51.024;13.828;2023-05-10T09:34:22;5.70;;;2.10;;
9918;SDS011;4998;51.024;13.828;2023-05-10T09:36:56;2.57;;;2.30;;
9918;SDS011;4998;51.024;13.828;2023-05-10T09:39:30;2.20;;;2.10;;
9918;SDS011;4998;51.024;13.828;2023-05-10T09:41:58;3.23;;;2.30;;
9918;SDS011;4998;51.024;13.828;2023-05-10T09:44:27;2.20;;;2.07;;
9918;SDS011;4998;51.024;13.828;2023-05-10T09:46:54;2.20;;;2.03;;
9918;SDS011;4998;51.024;13.828;2023-05-10T09:49:22;3.17;;;2.60;;
9918;SDS011;4998;51.024;13.828;2023-05-10T09:51:59;2.37;;;2.27;;
9918;SDS011;4998;51.024;13.828;2023-05-10T09:54:26;2.40;;;2.20;;
9918;SDS011;4998;51.024;13.828;2023-05-10T09:56:53;2.40;;;2.20;;
9918;SDS011;4998;51.024;13.828;2023-05-10T09:59:20;2.50;;;2.30;;
9918;SDS011;4998;51.024;13.828;2023-05-10T10:01:52;2.90;;;2.07;;
9918;SDS011;4998;51.024;13.828;2023-05-10T10:04:22;2.17;;;2.07;;
9918;SDS011;4998;51.024;13.828;2023-05-10T10:06:58;2.40;;;2.27;;
9918;SDS011;4998;51.024;13.828;2023-05-10T10:09:25;2.23;;;2.13;;
9918;SDS011;4998;51.024;13.828;2023-05-10T10:11:53;2.30;;;2.20;;
9918;SDS011;4998;51.024;13.828;2023-05-10T10:14:21;2.60;;;2.03;;
9918;SDS011;4998;51.024;13.828;2023-05-10T10:16:49;3.37;;;2.43;;
9918;SDS011;4998;51.024;13.828;2023-05-10T10:19:18;2.17;;;2.07;;
9918;SDS011;4998;51.024;13.828;2023-05-10T10:21:45;2.23;;;2.13;;
9918;SDS011;4998;51.024;13.828;2023-05-10T10:24:12;2.40;;;2.20;;
9918;SDS011;4998;51.024;13.828;2023-05-10T10:26:39;12.10;;;2.47;;
9918;SDS011;4998;51.024;13.828;2023-05-10T10:29:11;2.07;;;1.93;;
9918;SDS011;4998;51.024;13.828;2023-05-10T10:31:48;3.07;;;2.47;;
9918;SDS011;4998;51.024;13.828;2023-05-10T10:34:26;2.83;;;2.20;;
9918;SDS011;4998;51.024;13.828;2023-05-10T10:36:54;1.90;;;1.80;;
9918;SDS011;4998;51.024;13.828;2023-05-10T10:39:22;2.33;;;2.13;;
9918;SDS011;4998;51.024;13.828;2023-05-10T10:41:51;2.73;;;2.13;;
9918;SDS011;4998;51.024;13.828;2023-05-10T10:44:25;2.43;;;2.33;;
9918;SDS011;4998;51.024;13.828;2023-05-10T10:47:04;3.30;;;2.73;;
9918;SDS011;4998;51.024;13.828;2023-05-10T10:49:43;2.30;;;2.03;;
9918;SDS011;4998;51.024;13.828;2023-05-10T10:52:15;2.30;;;2.20;;
9918;SDS011;4998;51.024;13.828;2023-05-10T10:54:49;3.17;;;2.17;;
9918;SDS011;4998;51.024;13.828;2023-05-10T10:57:18;2.60;;;2.33;;
9918;SDS011;4998;51.024;13.828;2023-05-10T10:59:46;2.63;;;2.13;;
9918;SDS011;4998;51.024;13.828;2023-05-10T11:02:32;2.37;;;2.27;;
9918;SDS011;4998;51.024;13.828;2023-05-10T11:05:03;2.87;;;2.33;;
9918;SDS011;4998;51.024;13.828;2023-05-10T11:07:59;2.50;;;2.30;;
9918;SDS011;4998;51.024;13.828;2023-05-10T11:10:36;2.67;;;2.30;;
9918;SDS011;4998;51.024;13.828;2023-05-10T11:13:03;2.87;;;2.60;;
9918;SDS011;4998;51.024;13.828;2023-05-10T11:15:32;2.63;;;2.43;;
9918;SDS011;4998;51.024;13.828;2023-05-10T11:17:59;2.60;;;2.40;;
9918;SDS011;4998;51.024;13.828;2023-05-10T11:20:43;2.43;;;2.27;;
9918;SDS011;4998;51.024;13.828;2023-05-10T11:23:16;2.57;;;2.13;;
9918;SDS011;4998;51.024;13.828;2023-05-10T11:25:43;2.33;;;2.13;;
9918;SDS011;4998;51.024;13.828;2023-05-10T11:28:10;3.13;;;2.20;;
9918;SDS011;4998;51.024;13.828;2023-05-10T11:30:38;2.30;;;2.10;;
9918;SDS011;4998;51.024;13.828;2023-05-10T11:33:06;2.80;;;2.00;;
9918;SDS011;4998;51.024;13.828;2023-05-10T11:35:37;2.40;;;2.20;;
9918;SDS011;4998;51.024;13.828;2023-05-10T11:38:07;2.50;;;2.23;;
9918;SDS011;4998;51.024;13.828;2023-05-10T11:40:35;2.70;;;2.47;;
9918;SDS011;4998;51.024;13.828;2023-05-10T11:43:02;3.03;;;2.27;;
9918;SDS011;4998;51.024;13.828;2023-05-10T11:45:31;4.53;;;2.27;;
9918;SDS011;4998;51.024;13.828;2023-05-10T11:47:59;2.30;;;2.10;;
9918;SDS011;4998;51.024;13.828;2023-05-10T11:50:27;2.03;;;1.93;;
9918;SDS011;4998;51.024;13.828;2023-05-10T11:52:54;2.07;;;1.97;;
9918;SDS011;4998;51.024;13.828;2023-05-10T11:55:23;2.57;;;2.37;;
9918;SDS011;4998;51.024;13.828;2023-05-10T11:57:54;2.50;;;2.30;;
9918;SDS011;4998;51.024;13.828;2023-05-10T12:00:21;2.23;;;2.13;;
9918;SDS011;4998;51.024;13.828;2023-05-10T12:02:48;2.47;;;2.27;;
9918;SDS011;4998;51.024;13.828;2023-05-10T12:05:15;4.67;;;2.70;;
9918;SDS011;4998;51.024;13.828;2023-05-10T12:07:42;5.90;;;2.43;;
9918;SDS011;4998;51.024;13.828;2023-05-10T12:10:10;3.10;;;2.30;;
9918;SDS011;4998;51.024;13.828;2023-05-10T12:12:41;5.33;;;2.57;;
9918;SDS011;4998;51.024;13.828;2023-05-10T12:15:13;2.40;;;2.20;;
9918;SDS011;4998;51.024;13.828;2023-05-10T12:17:44;3.27;;;2.97;;
9918;SDS011;4998;51.024;13.828;2023-05-10T12:20:18;4.10;;;2.10;;
9918;SDS011;4998;51.024;13.828;2023-05-10T12:22:47;2.30;;;2.10;;
9918;SDS011;4998;51.024;13.828;2023-05-10T12:25:16;2.20;;;2.10;;
9918;SDS011;4998;51.024;13.828;2023-05-10T12:27:49;2.50;;;2.40;;
9918;SDS011;4998;51.024;13.828;2023-05-10T12:30:20;2.70;;;2.50;;
9918;SDS011;4998;51.024;13.828;2023-05-10T12:32:48;2.30;;;2.10;;
9918;SDS011;4998;51.024;13.828;2023-05-10T12:35:16;2.63;;;2.43;;
9918;SDS011;4998;51.024;13.828;2023-05-10T12:37:45;2.43;;;2.20;;
9918;SDS011;4998;51.024;13.828;2023-05-10T12:40:13;2.67;;;2.23;;
9918;SDS011;4998;51.024;13.828;2023-05-10T12:42:40;2.20;;;2.00;;
9918;SDS011;4998;51.024;13.828;2023-05-10T12:45:09;3.33;;;2.20;;
9918;SDS011;4998;51.024;13.828;2023-05-10T12:47:37;3.40;;;2.17;;
9918;SDS011;4998;51.024;13.828;2023-05-10T12:50:04;6.03;;;2.20;;
9918;SDS011;4998;51.024;13.828;2023-05-10T12:52:32;2.10;;;2.00;;
9918;SDS011;4998;51.024;13.828;2023-05-10T12:54:59;2.50;;;2.30;;
9918;SDS011;4998;51.024;13.828;2023-05-10T12:57:26;2.57;;;2.37;;
9918;SDS011;4998;51.024;13.828;2023-05-10T12:59:54;2.27;;;2.17;;
9918;SDS011;4998;51.024;13.828;2023-05-10T13:02:22;5.00;;;2.30;;
9918;SDS011;4998;51.024;13.828;2023-05-10T13:04:49;2.50;;;2.30;;
9918;SDS011;4998;51.024;13.828;2023-05-10T13:07:17;2.60;;;2.40;;
9918;SDS011;4998;51.024;13.828;2023-05-10T13:09:45;2.77;;;2.57;;
9918;SDS011;4998;51.024;13.828;2023-05-10T13:12:18;2.90;;;2.70;;
9918;SDS011;4998;51.024;13.828;2023-05-10T13:14:45;3.27;;;2.33;;
9918;SDS011;4998;51.024;13.828;2023-05-10T13:17:11;2.50;;;2.30;;
9918;SDS011;4998;51.024;13.828;2023-05-10T13:19:40;2.40;;;2.30;;
9918;SDS011;4998;51.024;13.828;2023-05-10T13:22:07;2.47;;;2.27;;
9918;SDS011;4998;51.024;13.828;2023-05-10T13:24:34;3.63;;;2.30;;
9918;SDS011;4998;51.024;13.828;2023-05-10T13:27:01;2.17;;;2.00;;
9918;SDS011;4998;51.024;13.828;2023-05-10T13:29:28;2.17;;;1.97;;
9918;SDS011;4998;51.024;13.828;2023-05-10T13:31:55;3.00;;;2.60;;
9918;SDS011;4998;51.024;13.828;2023-05-10T13:34:22;2.30;;;2.13;;
9918;SDS011;4998;51.024;13.828;2023-05-10T13:36:50;5.53;;;2.10;;
9918;SDS011;4998;51.024;13.828;2023-05-10T13:39:18;2.43;;;2.33;;
9918;SDS011;4998;51.024;13.828;2023-05-10T13:41:46;2.83;;;2.40;;
9918;SDS011;4998;51.024;13.828;2023-05-10T13:44:13;2.27;;;2.10;;
9918;SDS011;4998;51.024;13.828;2023-05-10T13:46:40;3.23;;;2.00;;
9918;SDS011;4998;51.024;13.828;2023-05-10T13:49:08;4.30;;;1.87;;
9918;SDS011;4998;51.024;13.828;2023-05-10T13:51:35;2.60;;;2.37;;
9918;SDS011;4998;51.024;13.828;2023-05-10T13:54:03;3.00;;;2.27;;
9918;SDS011;4998;51.024;13.828;2023-05-10T13:56:31;2.60;;;2.43;;
9918;SDS011;4998;51.024;13.828;2023-05-10T13:58:58;2.40;;;2.30;;
9918;SDS011;4998;51.024;13.828;2023-05-10T14:01:25;2.50;;;1.90;;
9918;SDS011;4998;51.024;13.828;2023-05-10T14:03:52;2.63;;;2.43;;
9918;SDS011;4998;51.024;13.828;2023-05-10T14:06:19;2.47;;;2.03;;
9918;SDS011;4998;51.024;13.828;2023-05-10T14:08:46;2.27;;;2.07;;
9918;SDS011;4998;51.024;13.828;2023-05-10T14:11:15;2.27;;;2.17;;
9918;SDS011;4998;51.024;13.828;2023-05-10T14:13:42;6.33;;;2.20;;
9918;SDS011;4998;51.024;13.828;2023-05-10T14:16:09;2.23;;;2.13;;
9918;SDS011;4998;51.024;13.828;2023-05-10T14:18:36;2.17;;;1.87;;
9918;SDS011;4998;51.024;13.828;2023-05-10T14:21:03;1.90;;;1.80;;
9918;SDS011;4998;51.024;13.828;2023-05-10T14:23:30;2.17;;;2.07;;
9918;SDS011;4998;51.024;13.828;2023-05-10T14:25:57;3.77;;;1.90;;
9918;SDS011;4998;51.024;13.828;2023-05-10T14:28:25;3.00;;;2.03;;
9918;SDS011;4998;51.024;13.828;2023-05-10T14:30:52;2.63;;;2.43;;
9918;SDS011;4998;51.024;13.828;2023-05-10T14:33:19;5.80;;;2.40;;
9918;SDS011;4998;51.024;13.828;2023-05-10T14:35:47;2.30;;;2.10;;
9918;SDS011;4998;51.024;13.828;2023-05-10T14:38:14;2.00;;;1.90;;
9918;SDS011;4998;51.024;13.828;2023-05-10T14:40:41;2.47;;;2.30;;
9918;SDS011;4998;51.024;13.828;2023-05-10T14:43:08;2.30;;;2.10;;
9918;SDS011;4998;51.024;13.828;2023-05-10T14:45:37;2.17;;;2.07;;
9918;SDS011;4998;51.024;13.828;2023-05-10T14:48:03;2.47;;;2.20;;
9918;SDS011;4998;51.024;13.828;2023-05-10T14:50:30;2.70;;;2.47;;
9918;SDS011;4998;51.024;13.828;2023-05-10T14:52:58;2.03;;;1.93;;
9918;SDS011;4998;51.024;13.828;2023-05-10T14:55:25;4.77;;;2.27;;
9918;SDS011;4998;51.024;13.828;2023-05-10T14:57:52;6.40;;;2.00;;
9918;SDS011;4998;51.024;13.828;2023-05-10T15:00:19;3.50;;;2.00;;
9918;SDS011;4998;51.024;13.828;2023-05-10T15:02:48;2.33;;;2.23;;
9918;SDS011;4998;51.024;13.828;2023-05-10T15:05:15;3.20;;;2.43;;
9918;SDS011;4998;51.024;13.828;2023-05-10T15:07:42;2.37;;;2.10;;
9918;SDS011;4998;51.024;13.828;2023-05-10T15:10:09;5.13;;;2.00;;